Abercarn, United Kingdom
Current Conditions -  °F | °C
As of 5:50 PM on Thursday 30 Oct 2014 (Local Time) from EGFF Reporting Station
Scattered Clouds Scattered Clouds  
Wind Chill: 59°   Ceiling: Unl
Heat Index: 59°   Visibility: 5mi
Dew Point: 57°   Wind: 8mph
Humidity: 94%   Direction: 170°S
Pressure: 30"   Gusts: NA
Location:  51.65°N, 3.13°W
Report Text: EGFF 301750Z AUTO 17007KT 8000 SCT013 15/14 Q1016
Loading
Personal Weather Stations






























Interactive Weather Map
Tropical Storm Tracking
New forecast layout! Learn more

10-Day Weather Forecast

Advertisements
Track Severe Weather on mobile